createdAt,value
2018-06-14T00:00:54.300Z,23.00
2018-06-14T00:03:23.816Z,23.00
2018-06-14T00:05:53.230Z,23.00
2018-06-14T00:08:22.666Z,23.00
2018-06-14T00:13:20.873Z,23.00
2018-06-14T00:15:50.248Z,23.00
2018-06-14T00:18:19.621Z,23.00
2018-06-14T00:20:49.004Z,23.00
2018-06-14T00:23:18.407Z,23.00
2018-06-14T00:25:47.778Z,23.00
2018-06-14T00:28:17.158Z,23.00
2018-06-14T00:30:46.598Z,23.00
2018-06-14T00:33:15.945Z,23.00
2018-06-14T00:35:45.356Z,23.00
2018-06-14T00:38:14.773Z,23.00
2018-06-14T00:40:44.280Z,23.00
2018-06-14T00:45:42.813Z,22.90
2018-06-14T00:48:12.238Z,23.00
2018-06-14T00:50:41.710Z,22.90
2018-06-14T00:53:11.110Z,22.90
2018-06-14T00:55:40.474Z,22.90
2018-06-14T00:58:09.854Z,22.90
2018-06-14T01:00:39.252Z,22.90
2018-06-14T01:03:08.686Z,22.90
2018-06-14T01:05:38.143Z,22.80
2018-06-14T01:08:07.514Z,22.80
2018-06-14T01:10:36.994Z,22.80
2018-06-14T01:13:06.601Z,22.80
2018-06-14T01:15:35.981Z,22.80
2018-06-14T01:18:05.468Z,22.80
2018-06-14T01:20:34.912Z,22.70
2018-06-14T01:23:04.384Z,22.70
2018-06-14T01:25:33.897Z,22.70
2018-06-14T01:28:03.352Z,22.70
2018-06-14T01:33:01.571Z,22.60
2018-06-14T01:35:30.983Z,22.60
2018-06-14T01:38:11.349Z,22.60
2018-06-14T01:40:40.865Z,22.60
2018-06-14T01:43:10.222Z,22.60
2018-06-14T01:45:39.623Z,22.60
2018-06-14T01:48:08.999Z,22.60
2018-06-14T01:50:38.373Z,22.60
2018-06-14T01:53:07.784Z,22.60
2018-06-14T01:55:37.226Z,22.60
2018-06-14T01:58:06.685Z,22.60
2018-06-14T02:00:36.076Z,22.60
2018-06-14T02:03:05.611Z,22.60
2018-06-14T02:05:35.026Z,22.60
2018-06-14T02:08:04.456Z,22.60
2018-06-14T02:10:34.040Z,22.60
2018-06-14T02:13:03.453Z,22.60
2018-06-14T02:15:32.856Z,22.60
2018-06-14T02:18:02.307Z,22.60
2018-06-14T02:20:31.659Z,22.60
2018-06-14T02:25:29.891Z,22.60
2018-06-14T02:27:59.287Z,22.50
2018-06-14T02:30:28.711Z,22.50
2018-06-14T02:32:58.079Z,22.50
2018-06-14T02:35:27.434Z,22.50
2018-06-14T02:37:56.965Z,22.50
2018-06-14T02:40:26.321Z,22.50
2018-06-14T02:42:55.747Z,22.50
2018-06-14T02:45:25.169Z,22.50
2018-06-14T02:47:54.570Z,22.50
2018-06-14T02:52:52.776Z,22.50
2018-06-14T02:55:22.224Z,22.40
2018-06-14T02:57:51.633Z,22.40
2018-06-14T03:02:49.886Z,22.40
2018-06-14T03:05:19.241Z,22.40
2018-06-14T03:07:48.623Z,22.40
2018-06-14T03:10:18.035Z,22.40
2018-06-14T03:12:47.430Z,22.40
2018-06-14T03:15:16.904Z,22.40
2018-06-14T03:17:46.355Z,22.40
2018-06-14T03:20:15.837Z,22.40
2018-06-14T03:22:45.386Z,22.40
2018-06-14T03:25:14.768Z,22.40
2018-06-14T03:27:44.106Z,22.40
2018-06-14T03:30:13.611Z,22.40
2018-06-14T03:32:43.084Z,22.40
2018-06-14T03:37:41.280Z,22.30
2018-06-14T03:40:10.673Z,22.40
2018-06-14T03:45:17.970Z,22.30
2018-06-14T03:47:48.704Z,22.30
2018-06-14T03:50:18.085Z,22.30
2018-06-14T03:52:47.470Z,22.30
2018-06-14T03:55:16.857Z,22.30
2018-06-14T03:57:46.218Z,22.40
2018-06-14T04:00:15.573Z,22.30
2018-06-14T04:02:44.965Z,22.30
2018-06-14T04:05:14.456Z,22.30
2018-06-14T04:07:43.801Z,22.30
2018-06-14T04:10:13.221Z,22.30
2018-06-14T04:12:43.222Z,22.30
2018-06-14T04:15:12.670Z,22.30
2018-06-14T04:17:42.030Z,22.30
2018-06-14T04:20:11.421Z,22.30
2018-06-14T04:22:40.840Z,22.30
2018-06-14T04:25:10.341Z,22.20
2018-06-14T04:27:39.808Z,22.20
2018-06-14T04:30:09.176Z,22.30
2018-06-14T04:35:07.388Z,22.20
2018-06-14T04:37:36.782Z,22.20
2018-06-14T04:40:06.220Z,22.20
2018-06-14T04:42:35.596Z,22.20
2018-06-14T04:45:05.141Z,22.20
2018-06-14T04:47:34.497Z,22.20
2018-06-14T04:50:03.988Z,22.20
2018-06-14T04:52:33.522Z,22.20
2018-06-14T04:55:02.920Z,22.20
2018-06-14T04:57:33.660Z,22.20
2018-06-14T05:00:03.079Z,22.10
2018-06-14T05:02:32.478Z,22.10
2018-06-14T05:05:01.851Z,22.10
2018-06-14T05:07:31.322Z,22.10
2018-06-14T05:10:00.723Z,22.10
2018-06-14T05:12:30.132Z,22.10
2018-06-14T05:14:59.558Z,22.10
2018-06-14T05:17:28.964Z,22.10
2018-06-14T05:19:58.410Z,22.10
2018-06-14T05:22:27.832Z,22.10
2018-06-14T05:24:57.174Z,22.20
2018-06-14T05:27:27.251Z,22.20
2018-06-14T05:29:56.625Z,22.10
2018-06-14T05:32:26.951Z,22.10
2018-06-14T05:34:56.364Z,22.10
2018-06-14T05:37:25.789Z,22.10
2018-06-14T05:39:55.201Z,22.10
2018-06-14T05:44:53.644Z,22.10
2018-06-14T05:47:23.074Z,22.10
2018-06-14T05:49:52.599Z,22.10
2018-06-14T05:54:50.852Z,22.10
2018-06-14T05:57:20.276Z,22.10
2018-06-14T05:59:49.680Z,22.10
2018-06-14T06:02:19.141Z,22.10
2018-06-14T06:04:48.522Z,22.10
2018-06-14T06:09:47.805Z,22.10
2018-06-14T06:12:18.090Z,22.10
2018-06-14T06:14:48.423Z,22.10
2018-06-14T06:17:18.096Z,22.20
2018-06-14T06:19:47.652Z,22.20
2018-06-14T06:22:18.105Z,22.20
2018-06-14T06:27:17.322Z,22.20
2018-06-14T06:29:47.048Z,22.20
2018-06-14T06:34:45.628Z,22.20
2018-06-14T06:39:43.953Z,22.20
2018-06-14T06:42:13.326Z,22.20
2018-06-14T06:44:42.726Z,22.20
2018-06-14T06:47:12.177Z,22.20
2018-06-14T06:49:41.518Z,22.20
2018-06-14T06:52:10.918Z,22.30
2018-06-14T06:54:40.262Z,22.20
2018-06-14T06:57:09.643Z,22.20
2018-06-14T06:59:39.106Z,22.20
2018-06-14T07:02:08.455Z,22.20
2018-06-14T07:07:07.656Z,22.20
2018-06-14T07:09:38.028Z,22.20
2018-06-14T07:12:07.390Z,22.30
2018-06-14T07:17:05.645Z,22.30
2018-06-14T07:19:35.019Z,22.30
2018-06-14T07:22:04.431Z,22.30
2018-06-14T07:24:33.831Z,22.30
2018-06-14T07:27:03.178Z,22.30
2018-06-14T07:29:32.487Z,22.30
2018-06-14T07:32:01.864Z,22.30
2018-06-14T07:34:31.247Z,22.40
2018-06-14T07:37:00.710Z,22.30
2018-06-14T07:39:30.100Z,22.40
2018-06-14T07:44:28.223Z,22.40
2018-06-14T07:46:57.579Z,22.50
2018-06-14T07:49:26.986Z,22.50
2018-06-14T07:54:25.162Z,22.40
2018-06-14T07:56:54.481Z,22.50
2018-06-14T07:59:24.167Z,22.50
2018-06-14T08:01:53.586Z,22.50
2018-06-14T08:04:23.356Z,22.50
2018-06-14T08:06:53.448Z,22.60
2018-06-14T08:09:23.147Z,22.50
2018-06-14T08:11:52.866Z,22.60
2018-06-14T08:14:22.240Z,22.60
2018-06-14T08:16:51.591Z,22.70
2018-06-14T08:19:21.050Z,22.70
2018-06-14T08:21:50.463Z,22.80
2018-06-14T08:24:19.876Z,22.80
2018-06-14T08:26:49.329Z,22.80
2018-06-14T08:29:18.653Z,22.80
2018-06-14T08:31:48.088Z,22.80
2018-06-14T08:34:17.432Z,22.80
2018-06-14T08:36:46.732Z,22.80
2018-06-14T08:39:16.104Z,22.80
2018-06-14T08:41:45.456Z,22.80
2018-06-14T08:44:14.883Z,22.90
2018-06-14T08:49:13.092Z,23.00
2018-06-14T08:51:42.514Z,23.10
2018-06-14T08:54:11.895Z,23.10
2018-06-14T08:56:41.368Z,23.20
2018-06-14T09:01:39.564Z,23.30
2018-06-14T09:04:08.988Z,23.40
2018-06-14T09:06:38.393Z,23.50
2018-06-14T09:09:09.584Z,23.60
2018-06-14T09:11:39.557Z,23.60
2018-06-14T09:14:09.908Z,23.70
2018-06-14T09:19:08.749Z,23.90
2018-06-14T09:24:06.954Z,24.00
2018-06-14T09:29:05.168Z,24.00
2018-06-14T09:31:34.596Z,24.00
2018-06-14T09:34:03.999Z,24.10
2018-06-14T09:36:34.402Z,24.10
2018-06-14T09:39:05.064Z,24.30
2018-06-14T09:41:34.503Z,24.30
2018-06-14T09:49:06.607Z,24.40
2018-06-14T09:51:35.967Z,24.50
2018-06-14T09:54:05.499Z,24.50
2018-06-14T09:56:35.113Z,24.70
2018-06-14T09:59:04.648Z,24.70
2018-06-14T10:01:34.039Z,24.80
2018-06-14T10:04:03.410Z,24.90
2018-06-14T10:06:32.823Z,24.90
2018-06-14T10:09:02.268Z,25.00
2018-06-14T10:11:31.678Z,25.10
2018-06-14T10:14:01.037Z,25.10
2018-06-14T10:21:28.393Z,25.20
2018-06-14T10:23:57.771Z,25.20
2018-06-14T10:26:27.152Z,25.20
2018-06-14T10:28:56.519Z,25.10
2018-06-14T10:33:54.877Z,25.10
2018-06-14T10:36:24.271Z,25.20
2018-06-14T10:38:53.628Z,25.20
2018-06-14T10:46:20.554Z,25.10
2018-06-14T10:48:49.865Z,25.20
2018-06-14T10:51:19.215Z,25.20
2018-06-14T10:53:48.546Z,25.20
2018-06-14T10:56:17.896Z,25.20
2018-06-14T10:58:47.271Z,25.20
2018-06-14T11:01:16.752Z,25.20
2018-06-14T11:03:46.096Z,25.30
2018-06-14T11:06:15.493Z,25.30
2018-06-14T11:08:44.844Z,25.30
2018-06-14T11:11:14.237Z,25.20
2018-06-14T11:13:43.712Z,25.10
2018-06-14T11:16:13.142Z,25.10
2018-06-14T11:18:42.536Z,25.10
2018-06-14T11:23:40.853Z,25.20
2018-06-14T11:26:10.690Z,25.30
2018-06-14T11:28:40.126Z,25.40
2018-06-14T11:31:09.521Z,25.30
2018-06-14T11:33:38.872Z,25.50
2018-06-14T11:36:08.307Z,25.40
2018-06-14T11:38:37.625Z,25.50
2018-06-14T11:41:06.976Z,25.40
2018-06-14T11:43:36.271Z,25.40
2018-06-14T11:46:05.912Z,25.50
2018-06-14T11:48:35.304Z,25.70
2018-06-14T11:51:04.652Z,25.80
2018-06-14T11:53:34.177Z,25.70
2018-06-14T11:58:32.862Z,25.40
2018-06-14T12:03:31.029Z,25.30
2018-06-14T12:06:00.415Z,25.20
2018-06-14T12:08:29.772Z,25.30
2018-06-14T12:10:59.241Z,25.30
2018-06-14T12:13:28.689Z,25.20
2018-06-14T12:15:58.050Z,25.00
2018-06-14T12:18:27.399Z,24.90
2018-06-14T12:20:56.833Z,24.80
2018-06-14T12:23:26.268Z,24.70
2018-06-14T12:28:24.369Z,24.60
2018-06-14T12:30:53.581Z,24.60
2018-06-14T12:33:22.825Z,24.60
2018-06-14T12:35:52.152Z,24.60
2018-06-14T12:38:21.375Z,24.60
2018-06-14T12:43:19.452Z,24.60
2018-06-14T12:50:47.925Z,24.60
2018-06-14T12:53:17.492Z,24.70
2018-06-14T12:55:46.962Z,24.70
2018-06-14T12:58:16.329Z,24.70
2018-06-14T13:00:45.616Z,24.70
2018-06-14T13:03:14.887Z,24.70
2018-06-14T13:05:44.146Z,24.70
2018-06-14T13:08:13.492Z,24.70
2018-06-14T13:10:42.865Z,24.80
2018-06-14T13:13:12.069Z,24.80
2018-06-14T13:18:10.149Z,24.80
2018-06-14T13:20:39.402Z,24.90
2018-06-14T13:23:08.756Z,24.90
2018-06-14T13:25:37.980Z,24.90
2018-06-14T13:28:08.452Z,24.90
2018-06-14T13:30:37.697Z,24.90
2018-06-14T13:33:06.935Z,25.00
2018-06-14T13:35:36.304Z,25.00
2018-06-14T13:38:05.633Z,25.10
2018-06-14T13:40:34.834Z,25.10
2018-06-14T13:43:04.109Z,25.00
2018-06-14T13:45:33.533Z,25.00
2018-06-14T13:48:02.840Z,24.90
2018-06-14T13:50:32.427Z,24.80
2018-06-14T13:53:01.937Z,24.80
2018-06-14T13:55:31.614Z,24.80
2018-06-14T13:58:00.905Z,24.70
2018-06-14T14:00:30.294Z,24.80
2018-06-14T14:05:28.402Z,24.90
2018-06-14T14:07:57.680Z,24.80
2018-06-14T14:10:26.940Z,24.80
2018-06-14T14:12:56.183Z,24.80
2018-06-14T14:17:54.340Z,24.80
2018-06-14T14:20:23.561Z,24.80
2018-06-14T14:22:52.907Z,24.80
2018-06-14T14:25:22.171Z,24.70
2018-06-14T14:27:51.489Z,24.70
2018-06-14T14:30:21.068Z,24.70
2018-06-14T14:32:50.357Z,24.70
2018-06-14T14:35:19.740Z,24.70
2018-06-14T14:37:52.149Z,24.80
2018-06-14T14:40:21.636Z,24.80
2018-06-14T14:42:51.154Z,24.80
2018-06-14T14:45:20.411Z,24.80
2018-06-14T14:47:49.786Z,24.80
2018-06-14T14:50:19.795Z,24.80
2018-06-14T14:55:17.776Z,24.70
2018-06-14T15:02:44.725Z,24.80
2018-06-14T15:05:15.749Z,24.80
2018-06-14T15:07:44.967Z,24.80
2018-06-14T15:10:14.180Z,24.80
2018-06-14T15:12:43.533Z,24.80
2018-06-14T15:15:12.822Z,24.80
2018-06-14T15:17:42.059Z,24.80
2018-06-14T15:20:11.267Z,24.80
2018-06-14T15:22:40.467Z,24.80
2018-06-14T15:25:09.725Z,24.80
2018-06-14T15:27:38.970Z,24.80
2018-06-14T15:30:08.156Z,24.80
2018-06-14T15:32:37.412Z,24.80
2018-06-14T15:35:06.740Z,24.80
2018-06-14T15:37:35.945Z,24.80
2018-06-14T15:40:05.271Z,24.90
2018-06-14T15:47:31.929Z,24.80
2018-06-14T15:50:01.214Z,24.80
2018-06-14T15:52:30.506Z,24.80
2018-06-14T15:55:10.574Z,24.80
2018-06-14T15:57:39.894Z,24.80
2018-06-14T16:02:37.968Z,24.80
2018-06-14T16:05:07.265Z,24.90
2018-06-14T16:07:36.522Z,24.80
2018-06-14T16:10:05.800Z,24.80
2018-06-14T16:12:35.046Z,24.80
2018-06-14T16:15:04.322Z,24.80
2018-06-14T16:17:33.633Z,24.80
2018-06-14T16:20:02.904Z,24.90
2018-06-14T16:22:32.312Z,24.90
2018-06-14T16:25:01.609Z,24.90
2018-06-14T16:27:30.860Z,24.80
2018-06-14T16:30:00.170Z,24.80
2018-06-14T16:32:29.452Z,24.80
2018-06-14T16:34:58.713Z,24.70
2018-06-14T16:37:27.959Z,24.70
2018-06-14T16:39:57.237Z,24.70
2018-06-14T16:42:26.504Z,24.70
2018-06-14T16:44:55.728Z,24.70
2018-06-14T16:47:24.987Z,24.70
2018-06-14T16:49:54.179Z,24.70
2018-06-14T16:54:52.272Z,24.70
2018-06-14T16:59:50.284Z,24.70
2018-06-14T17:02:19.563Z,24.70
2018-06-14T17:04:48.788Z,24.70
2018-06-14T17:07:18.016Z,24.70
2018-06-14T17:09:47.468Z,24.60
2018-06-14T17:12:16.746Z,24.60
2018-06-14T17:19:43.625Z,24.50
2018-06-14T17:24:41.588Z,24.40
2018-06-14T17:27:10.870Z,24.40
2018-06-14T17:29:40.167Z,24.30
2018-06-14T17:32:09.455Z,24.30
2018-06-14T17:34:38.699Z,24.20
2018-06-14T17:39:36.705Z,24.20
2018-06-14T17:42:06.038Z,24.20
2018-06-14T17:44:35.328Z,24.10
2018-06-14T17:47:04.654Z,24.10
2018-06-14T17:49:33.895Z,24.10
2018-06-14T17:54:31.950Z,24.00
2018-06-14T17:57:01.316Z,24.00
2018-06-14T17:59:30.566Z,24.00
2018-06-14T18:04:28.664Z,24.00
2018-06-14T18:06:57.919Z,24.00
2018-06-14T18:09:27.228Z,24.00
2018-06-14T18:11:56.466Z,23.90
2018-06-14T18:14:25.720Z,23.90
2018-06-14T18:16:55.428Z,23.90
2018-06-14T18:19:24.721Z,23.90
2018-06-14T18:21:53.947Z,23.90
2018-06-14T18:24:23.203Z,23.90
2018-06-14T18:26:52.460Z,23.80
2018-06-14T18:31:50.479Z,23.80
2018-06-14T18:34:19.760Z,23.70
2018-06-14T18:39:18.328Z,23.60
2018-06-14T18:41:47.597Z,23.70
2018-06-14T18:44:16.919Z,23.60
2018-06-14T18:46:46.356Z,23.60
2018-06-14T18:51:44.532Z,23.60
2018-06-14T18:54:13.868Z,23.60
2018-06-14T18:56:43.161Z,23.50
2018-06-14T18:59:12.430Z,23.50
2018-06-14T19:01:41.665Z,23.50
2018-06-14T19:04:10.998Z,23.60
2018-06-14T19:06:40.422Z,23.60
2018-06-14T19:09:11.123Z,23.60
2018-06-14T19:11:40.683Z,23.60
2018-06-14T19:14:10.307Z,23.60
2018-06-14T19:16:39.605Z,23.60
2018-06-14T19:19:08.890Z,23.60
2018-06-14T19:24:07.027Z,23.60
2018-06-14T19:26:36.289Z,23.60
2018-06-14T19:29:05.532Z,23.60
2018-06-14T19:31:34.782Z,23.60
2018-06-14T19:36:33.029Z,23.50
2018-06-14T19:39:02.313Z,23.40
2018-06-14T19:41:31.566Z,23.40
2018-06-14T19:46:29.673Z,23.30
2018-06-14T19:48:58.986Z,23.30
2018-06-14T19:51:28.459Z,23.40
2018-06-14T19:56:26.527Z,23.40
2018-06-14T19:58:55.807Z,23.40
2018-06-14T20:01:25.248Z,23.40
2018-06-14T20:06:23.323Z,23.40
2018-06-14T20:08:52.643Z,23.50
2018-06-14T20:11:21.998Z,23.50
2018-06-14T20:13:51.273Z,23.50
2018-06-14T20:16:20.661Z,23.50
2018-06-14T20:18:49.894Z,23.50
2018-06-14T20:21:19.253Z,23.40
2018-06-14T20:23:48.612Z,23.40
2018-06-14T20:26:17.957Z,23.40
2018-06-14T20:28:47.319Z,23.40
2018-06-14T20:33:45.600Z,23.40
2018-06-14T20:36:14.900Z,23.30
2018-06-14T20:38:44.319Z,23.30
2018-06-14T20:41:13.776Z,23.30
2018-06-14T20:43:43.162Z,23.30
2018-06-14T20:46:12.437Z,23.30
2018-06-14T20:48:41.746Z,23.20
2018-06-14T20:53:39.769Z,23.10
2018-06-14T20:56:09.233Z,23.10
2018-06-14T21:01:22.974Z,23.20
2018-06-14T21:03:52.656Z,23.20
2018-06-14T21:06:22.064Z,23.20
2018-06-14T21:08:51.908Z,23.20
2018-06-14T21:11:21.231Z,23.30
2018-06-14T21:13:50.527Z,23.20
2018-06-14T21:16:19.862Z,23.20
2018-06-14T21:18:49.109Z,23.20
2018-06-14T21:21:18.414Z,23.30
2018-06-14T21:23:47.818Z,23.30
2018-06-14T21:26:17.106Z,23.30
2018-06-14T21:31:15.120Z,23.30
2018-06-14T21:33:44.445Z,23.30
2018-06-14T21:36:13.711Z,23.30
2018-06-14T21:41:11.908Z,23.30
2018-06-14T21:43:41.161Z,23.30
2018-06-14T21:46:10.457Z,23.30
2018-06-14T21:48:39.776Z,23.20
2018-06-14T21:51:09.076Z,23.20
2018-06-14T21:53:38.373Z,23.30
2018-06-14T21:56:07.613Z,23.30
2018-06-14T21:58:36.922Z,23.30
2018-06-14T22:01:06.944Z,23.30
2018-06-14T22:03:41.252Z,23.30
2018-06-14T22:06:10.587Z,23.30
2018-06-14T22:08:39.894Z,23.30
2018-06-14T22:11:09.239Z,23.30
2018-06-14T22:13:38.594Z,23.30
2018-06-14T22:16:07.856Z,23.30
2018-06-14T22:18:37.111Z,23.30
2018-06-14T22:21:06.444Z,23.30
2018-06-14T22:23:35.683Z,23.30
2018-06-14T22:26:04.976Z,23.30
2018-06-14T22:28:34.265Z,23.30
2018-06-14T22:31:03.536Z,23.30
2018-06-14T22:33:43.942Z,23.30
2018-06-14T22:36:13.190Z,23.30
2018-06-14T22:38:42.481Z,23.30
2018-06-14T22:41:11.806Z,23.30
2018-06-14T22:43:41.105Z,23.30
2018-06-14T22:46:10.339Z,23.30
2018-06-14T22:48:39.651Z,23.30
2018-06-14T22:51:19.962Z,23.30
2018-06-14T22:53:49.325Z,23.30
2018-06-14T22:56:18.718Z,23.30
2018-06-14T22:58:47.942Z,23.20
2018-06-14T23:01:31.506Z,23.20
2018-06-14T23:04:01.444Z,23.20
2018-06-14T23:06:30.805Z,23.20
2018-06-14T23:09:01.194Z,23.20
2018-06-14T23:11:30.810Z,23.20
2018-06-14T23:14:00.134Z,23.20
2018-06-14T23:16:29.456Z,23.10
2018-06-14T23:18:58.752Z,23.10
2018-06-14T23:21:28.024Z,23.10
2018-06-14T23:23:57.288Z,23.10
2018-06-14T23:26:26.616Z,23.10
2018-06-14T23:28:56.026Z,23.10
2018-06-14T23:31:25.455Z,23.10
2018-06-14T23:33:55.213Z,23.10
2018-06-14T23:36:24.583Z,23.10
2018-06-14T23:38:54.052Z,23.10
2018-06-14T23:41:23.496Z,23.10
2018-06-14T23:43:52.776Z,23.10
2018-06-14T23:46:22.091Z,23.10
2018-06-14T23:48:51.412Z,23.10
2018-06-14T23:51:20.760Z,23.10
2018-06-14T23:56:19.001Z,23.10
2018-06-14T23:58:48.287Z,23.10
